首页
METAR-TAF:

METAR-TAF

机场 :

New River Valley Airport

都柏林, 弗吉尼亚州, 美国

纬度: 37-08N, 经度: 080-41W, 海拔: 642米

当前天气观测

该预报发布于22分钟前的13:55 UTC
风速4节,风向
温度 22°C
湿度 94%
气压 1021 hPa
能見度: 16.1公里
多云层高于700英尺
阴天层高于1100英尺

METAR: KPSK 201355Z AUTO 08004KT 10SM BKN007 OVC011 22/21 A3015 RMK AO2 T02170207

时间: 10:17 (14:17 UTC)


TAF: 丢失

超过4000个机场的气象观测和天气预报(METAR&TAF报告)。

可查询的气象台以黄色和红色小点在地图上表示。

将鼠标移到小点上方,可查看气象台名称。

然后点击查看天气观测和预报。

如需切换地图:点击带黑十字的绿色按钮放大地图;点击带横线的绿色按钮缩小地图;或者点击绿色箭头查看邻近地区的地图。


METAR-TAF: